sensor_id;sensor_type;location;lat;lon;timestamp;pressure;altitude;pressure_sealevel;temperature;humidity
79285;BME280;68734;50.452;11.636;2024-03-02T00:00:43;94469.88;;;1.93;100.00
79285;BME280;68734;50.452;11.636;2024-03-02T00:03:09;94470.91;;;1.92;100.00
79285;BME280;68734;50.452;11.636;2024-03-02T00:05:34;94465.72;;;1.85;100.00
79285;BME280;68734;50.452;11.636;2024-03-02T00:08:00;94461.09;;;1.81;100.00
79285;BME280;68734;50.452;11.636;2024-03-02T00:10:30;94464.09;;;1.72;100.00
79285;BME280;68734;50.452;11.636;2024-03-02T00:13:00;94471.38;;;1.65;100.00
79285;BME280;68734;50.452;11.636;2024-03-02T00:15:51;94459.25;;;1.69;100.00
79285;BME280;68734;50.452;11.636;2024-03-02T00:18:33;94456.22;;;1.66;100.00
79285;BME280;68734;50.452;11.636;2024-03-02T00:21:03;94456.78;;;1.68;100.00
79285;BME280;68734;50.452;11.636;2024-03-02T00:23:33;94458.75;;;1.72;100.00
79285;BME280;68734;50.452;11.636;2024-03-02T00:25:59;94458.31;;;1.75;100.00
79285;BME280;68734;50.452;11.636;2024-03-02T00:28:33;94459.34;;;1.74;100.00
79285;BME280;68734;50.452;11.636;2024-03-02T00:33:34;94449.88;;;1.55;100.00
79285;BME280;68734;50.452;11.636;2024-03-02T00:36:00;94448.72;;;1.51;100.00
79285;BME280;68734;50.452;11.636;2024-03-02T00:38:27;94454.72;;;1.58;100.00
79285;BME280;68734;50.452;11.636;2024-03-02T00:40:53;94455.88;;;1.62;100.00
79285;BME280;68734;50.452;11.636;2024-03-02T00:43:44;94449.63;;;1.68;100.00
79285;BME280;68734;50.452;11.636;2024-03-02T00:46:20;94449.03;;;1.66;100.00
79285;BME280;68734;50.452;11.636;2024-03-02T00:48:57;94450.44;;;1.69;100.00
79285;BME280;68734;50.452;11.636;2024-03-02T00:51:24;94455.41;;;1.65;100.00
79285;BME280;68734;50.452;11.636;2024-03-02T00:53:51;94452.19;;;1.63;100.00
79285;BME280;68734;50.452;11.636;2024-03-02T00:56:17;94457.03;;;1.90;100.00
79285;BME280;68734;50.452;11.636;2024-03-02T00:58:44;94454.56;;;2.00;100.00
79285;BME280;68734;50.452;11.636;2024-03-02T01:01:11;94451.34;;;1.98;100.00
79285;BME280;68734;50.452;11.636;2024-03-02T01:03:37;94447.53;;;1.94;100.00
79285;BME280;68734;50.452;11.636;2024-03-02T01:06:04;94456.56;;;1.93;100.00
79285;BME280;68734;50.452;11.636;2024-03-02T01:08:29;94452.50;;;2.02;100.00
79285;BME280;68734;50.452;11.636;2024-03-02T01:10:55;94462.91;;;2.04;100.00
79285;BME280;68734;50.452;11.636;2024-03-02T01:13:24;94450.97;;;2.06;100.00
79285;BME280;68734;50.452;11.636;2024-03-02T01:15:49;94460.69;;;2.12;100.00
79285;BME280;68734;50.452;11.636;2024-03-02T01:18:15;94466.25;;;2.23;100.00
79285;BME280;68734;50.452;11.636;2024-03-02T01:20:41;94456.50;;;2.16;100.00
79285;BME280;68734;50.452;11.636;2024-03-02T01:23:06;94463.25;;;2.19;100.00
79285;BME280;68734;50.452;11.636;2024-03-02T01:25:34;94457.41;;;2.34;100.00
79285;BME280;68734;50.452;11.636;2024-03-02T01:28:01;94450.56;;;2.38;100.00
79285;BME280;68734;50.452;11.636;2024-03-02T01:30:29;94452.78;;;2.41;100.00
79285;BME280;68734;50.452;11.636;2024-03-02T01:32:54;94457.97;;;2.48;100.00
79285;BME280;68734;50.452;11.636;2024-03-02T01:35:19;94458.88;;;2.53;100.00
79285;BME280;68734;50.452;11.636;2024-03-02T01:37:45;94458.50;;;2.62;100.00
79285;BME280;68734;50.452;11.636;2024-03-02T01:40:10;94454.88;;;2.68;100.00
79285;BME280;68734;50.452;11.636;2024-03-02T01:42:37;94457.66;;;2.73;100.00
79285;BME280;68734;50.452;11.636;2024-03-02T01:45:05;94463.56;;;2.75;100.00
79285;BME280;68734;50.452;11.636;2024-03-02T01:47:30;94455.06;;;2.78;100.00
79285;BME280;68734;50.452;11.636;2024-03-02T01:49:56;94465.34;;;2.86;100.00
79285;BME280;68734;50.452;11.636;2024-03-02T01:52:21;94470.94;;;2.85;100.00
79285;BME280;68734;50.452;11.636;2024-03-02T01:54:47;94457.44;;;2.91;100.00
79285;BME280;68734;50.452;11.636;2024-03-02T01:57:12;94460.69;;;2.93;100.00
79285;BME280;68734;50.452;11.636;2024-03-02T01:59:38;94465.06;;;2.99;100.00
79285;BME280;68734;50.452;11.636;2024-03-02T02:02:03;94464.25;;;2.99;100.00
79285;BME280;68734;50.452;11.636;2024-03-02T02:04:29;94460.75;;;2.98;100.00
79285;BME280;68734;50.452;11.636;2024-03-02T02:06:54;94461.81;;;2.97;100.00
79285;BME280;68734;50.452;11.636;2024-03-02T02:09:22;94459.56;;;3.06;100.00
79285;BME280;68734;50.452;11.636;2024-03-02T02:11:47;94454.16;;;3.01;100.00
79285;BME280;68734;50.452;11.636;2024-03-02T02:14:18;94457.28;;;2.98;100.00
79285;BME280;68734;50.452;11.636;2024-03-02T02:16:45;94461.34;;;3.00;100.00
79285;BME280;68734;50.452;11.636;2024-03-02T02:19:11;94459.22;;;3.03;100.00
79285;BME280;68734;50.452;11.636;2024-03-02T02:21:42;94465.06;;;2.99;100.00
79285;BME280;68734;50.452;11.636;2024-03-02T02:24:07;94461.91;;;3.03;100.00
79285;BME280;68734;50.452;11.636;2024-03-02T02:26:33;94455.53;;;3.04;100.00
79285;BME280;68734;50.452;11.636;2024-03-02T02:28:58;94452.97;;;3.09;100.00
79285;BME280;68734;50.452;11.636;2024-03-02T02:31:26;94452.81;;;3.15;100.00
79285;BME280;68734;50.452;11.636;2024-03-02T02:33:52;94455.31;;;3.22;100.00
79285;BME280;68734;50.452;11.636;2024-03-02T02:36:17;94449.25;;;3.27;100.00
79285;BME280;68734;50.452;11.636;2024-03-02T02:38:46;94450.63;;;3.29;100.00
79285;BME280;68734;50.452;11.636;2024-03-02T02:41:12;94455.06;;;3.40;100.00
79285;BME280;68734;50.452;11.636;2024-03-02T02:43:38;94452.50;;;3.46;100.00
79285;BME280;68734;50.452;11.636;2024-03-02T02:46:05;94442.94;;;3.50;100.00
79285;BME280;68734;50.452;11.636;2024-03-02T02:48:30;94450.22;;;3.54;100.00
79285;BME280;68734;50.452;11.636;2024-03-02T02:50:56;94446.84;;;3.59;100.00
79285;BME280;68734;50.452;11.636;2024-03-02T02:53:24;94441.66;;;3.69;100.00
79285;BME280;68734;50.452;11.636;2024-03-02T02:55:49;94447.78;;;3.70;100.00
79285;BME280;68734;50.452;11.636;2024-03-02T02:58:14;94439.03;;;3.74;100.00
79285;BME280;68734;50.452;11.636;2024-03-02T03:00:40;94441.81;;;3.79;100.00
79285;BME280;68734;50.452;11.636;2024-03-02T03:03:05;94441.84;;;3.85;100.00
79285;BME280;68734;50.452;11.636;2024-03-02T03:05:31;94443.53;;;3.91;100.00
79285;BME280;68734;50.452;11.636;2024-03-02T03:07:58;94441.44;;;3.93;100.00
79285;BME280;68734;50.452;11.636;2024-03-02T03:10:24;94446.31;;;3.96;100.00
79285;BME280;68734;50.452;11.636;2024-03-02T03:12:54;94430.28;;;3.96;100.00
79285;BME280;68734;50.452;11.636;2024-03-02T03:15:21;94444.19;;;3.98;100.00
79285;BME280;68734;50.452;11.636;2024-03-02T03:17:46;94437.25;;;3.97;100.00
79285;BME280;68734;50.452;11.636;2024-03-02T03:20:12;94435.69;;;4.01;100.00
79285;BME280;68734;50.452;11.636;2024-03-02T03:22:40;94441.59;;;4.03;100.00
79285;BME280;68734;50.452;11.636;2024-03-02T03:25:06;94434.63;;;4.02;100.00
79285;BME280;68734;50.452;11.636;2024-03-02T03:27:33;94435.13;;;3.99;100.00
79285;BME280;68734;50.452;11.636;2024-03-02T03:29:58;94447.44;;;4.00;100.00
79285;BME280;68734;50.452;11.636;2024-03-02T03:32:24;94443.72;;;4.01;100.00
79285;BME280;68734;50.452;11.636;2024-03-02T03:34:50;94445.31;;;4.02;100.00
79285;BME280;68734;50.452;11.636;2024-03-02T03:37:15;94444.50;;;4.02;100.00
79285;BME280;68734;50.452;11.636;2024-03-02T03:39:41;94451.22;;;4.04;100.00
79285;BME280;68734;50.452;11.636;2024-03-02T03:42:06;94443.72;;;4.01;100.00
79285;BME280;68734;50.452;11.636;2024-03-02T03:44:32;94449.06;;;4.01;100.00
79285;BME280;68734;50.452;11.636;2024-03-02T03:46:58;94455.00;;;4.08;100.00
79285;BME280;68734;50.452;11.636;2024-03-02T03:49:24;94452.03;;;4.05;100.00
79285;BME280;68734;50.452;11.636;2024-03-02T03:51:49;94446.94;;;4.03;100.00
79285;BME280;68734;50.452;11.636;2024-03-02T03:54:15;94451.72;;;4.01;100.00
79285;BME280;68734;50.452;11.636;2024-03-02T03:56:40;94449.09;;;4.06;100.00
79285;BME280;68734;50.452;11.636;2024-03-02T03:59:06;94454.41;;;4.01;100.00
79285;BME280;68734;50.452;11.636;2024-03-02T04:01:34;94451.97;;;3.99;100.00
79285;BME280;68734;50.452;11.636;2024-03-02T04:03:59;94449.53;;;3.98;100.00
79285;BME280;68734;50.452;11.636;2024-03-02T04:06:27;94460.31;;;4.03;100.00
79285;BME280;68734;50.452;11.636;2024-03-02T04:08:52;94450.09;;;4.00;100.00
79285;BME280;68734;50.452;11.636;2024-03-02T04:11:18;94457.13;;;4.06;100.00
79285;BME280;68734;50.452;11.636;2024-03-02T04:13:43;94463.59;;;4.10;100.00
79285;BME280;68734;50.452;11.636;2024-03-02T04:16:09;94461.66;;;4.06;100.00
79285;BME280;68734;50.452;11.636;2024-03-02T04:18:36;94462.16;;;4.03;100.00
79285;BME280;68734;50.452;11.636;2024-03-02T04:21:03;94465.69;;;4.08;100.00
79285;BME280;68734;50.452;11.636;2024-03-02T04:23:28;94464.25;;;4.17;100.00
79285;BME280;68734;50.452;11.636;2024-03-02T04:25:56;94468.78;;;4.17;100.00
79285;BME280;68734;50.452;11.636;2024-03-02T04:28:25;94467.34;;;4.09;100.00
79285;BME280;68734;50.452;11.636;2024-03-02T04:30:52;94463.03;;;4.08;100.00
79285;BME280;68734;50.452;11.636;2024-03-02T04:33:18;94471.56;;;4.05;100.00
79285;BME280;68734;50.452;11.636;2024-03-02T04:35:43;94471.56;;;4.05;100.00
79285;BME280;68734;50.452;11.636;2024-03-02T04:38:08;94469.44;;;4.07;100.00
79285;BME280;68734;50.452;11.636;2024-03-02T04:40:34;94469.94;;;4.04;100.00
79285;BME280;68734;50.452;11.636;2024-03-02T04:42:59;94469.75;;;4.11;100.00
79285;BME280;68734;50.452;11.636;2024-03-02T04:45:25;94468.47;;;4.13;100.00
79285;BME280;68734;50.452;11.636;2024-03-02T04:47:50;94471.13;;;4.13;100.00
79285;BME280;68734;50.452;11.636;2024-03-02T04:50:16;94479.94;;;4.14;100.00
79285;BME280;68734;50.452;11.636;2024-03-02T04:52:41;94474.59;;;4.14;100.00
79285;BME280;68734;50.452;11.636;2024-03-02T04:55:09;94479.63;;;4.10;100.00
79285;BME280;68734;50.452;11.636;2024-03-02T04:57:35;94478.31;;;4.13;100.00
79285;BME280;68734;50.452;11.636;2024-03-02T05:00:01;94475.91;;;4.11;100.00
79285;BME280;68734;50.452;11.636;2024-03-02T05:02:26;94478.50;;;4.06;100.00
79285;BME280;68734;50.452;11.636;2024-03-02T05:04:51;94480.44;;;4.11;100.00
79285;BME280;68734;50.452;11.636;2024-03-02T05:07:19;94481.75;;;4.08;100.00
79285;BME280;68734;50.452;11.636;2024-03-02T05:09:44;94480.38;;;4.06;100.00
79285;BME280;68734;50.452;11.636;2024-03-02T05:12:13;94481.91;;;4.02;100.00
79285;BME280;68734;50.452;11.636;2024-03-02T05:14:57;94474.66;;;3.97;100.00
79285;BME280;68734;50.452;11.636;2024-03-02T05:17:22;94475.69;;;3.96;100.00
79285;BME280;68734;50.452;11.636;2024-03-02T05:19:48;94474.31;;;3.93;100.00
79285;BME280;68734;50.452;11.636;2024-03-02T05:22:13;94478.34;;;3.96;100.00
79285;BME280;68734;50.452;11.636;2024-03-02T05:24:39;94474.66;;;3.97;100.00
79285;BME280;68734;50.452;11.636;2024-03-02T05:27:07;94480.47;;;3.94;100.00
79285;BME280;68734;50.452;11.636;2024-03-02T05:29:33;94466.53;;;3.92;100.00
79285;BME280;68734;50.452;11.636;2024-03-02T05:32:00;94472.88;;;3.86;100.00
79285;BME280;68734;50.452;11.636;2024-03-02T05:34:28;94478.69;;;3.83;100.00
79285;BME280;68734;50.452;11.636;2024-03-02T05:36:56;94468.00;;;3.83;100.00
79285;BME280;68734;50.452;11.636;2024-03-02T05:39:23;94479.25;;;3.85;100.00
79285;BME280;68734;50.452;11.636;2024-03-02T05:41:48;94472.88;;;3.86;100.00
79285;BME280;68734;50.452;11.636;2024-03-02T05:44:16;94481.44;;;3.88;100.00
79285;BME280;68734;50.452;11.636;2024-03-02T05:46:44;94475.53;;;3.86;100.00
79285;BME280;68734;50.452;11.636;2024-03-02T05:49:14;94470.69;;;3.83;100.00
79285;BME280;68734;50.452;11.636;2024-03-02T05:51:39;94477.66;;;3.84;100.00
79285;BME280;68734;50.452;11.636;2024-03-02T05:54:05;94489.13;;;3.84;100.00
79285;BME280;68734;50.452;11.636;2024-03-02T05:56:30;94483.06;;;3.89;100.00
79285;BME280;68734;50.452;11.636;2024-03-02T05:58:58;94479.81;;;3.87;100.00
79285;BME280;68734;50.452;11.636;2024-03-02T06:01:40;94488.34;;;3.84;100.00
79285;BME280;68734;50.452;11.636;2024-03-02T06:04:06;94494.25;;;3.86;100.00
79285;BME280;68734;50.452;11.636;2024-03-02T06:06:31;94491.34;;;3.87;100.00
79285;BME280;68734;50.452;11.636;2024-03-02T06:09:04;94492.13;;;3.88;100.00
79285;BME280;68734;50.452;11.636;2024-03-02T06:11:41;94491.63;;;3.91;100.00
79285;BME280;68734;50.452;11.636;2024-03-02T06:14:07;94496.75;;;3.92;100.00
79285;BME280;68734;50.452;11.636;2024-03-02T06:16:34;94491.16;;;3.94;100.00
79285;BME280;68734;50.452;11.636;2024-03-02T06:19:00;94487.44;;;3.95;100.00
79285;BME280;68734;50.452;11.636;2024-03-02T06:21:28;94494.72;;;3.99;100.00
79285;BME280;68734;50.452;11.636;2024-03-02T06:23:53;94500.88;;;4.00;100.00
79285;BME280;68734;50.452;11.636;2024-03-02T06:26:21;94503.63;;;4.05;100.00
79285;BME280;68734;50.452;11.636;2024-03-02T06:28:47;94501.50;;;4.07;100.00
79285;BME280;68734;50.452;11.636;2024-03-02T06:31:13;94503.13;;;4.08;100.00
79285;BME280;68734;50.452;11.636;2024-03-02T06:33:39;94504.41;;;4.06;100.00
79285;BME280;68734;50.452;11.636;2024-03-02T06:36:10;94504.66;;;4.04;100.00
79285;BME280;68734;50.452;11.636;2024-03-02T06:38:38;94508.13;;;4.05;100.00
79285;BME280;68734;50.452;11.636;2024-03-02T06:41:05;94513.25;;;4.06;100.00
79285;BME280;68734;50.452;11.636;2024-03-02T06:43:33;94506.84;;;4.07;100.00
79285;BME280;68734;50.452;11.636;2024-03-02T06:46:01;94514.94;;;4.12;100.00
79285;BME280;68734;50.452;11.636;2024-03-02T06:48:26;94504.56;;;4.16;100.00
79285;BME280;68734;50.452;11.636;2024-03-02T06:50:54;94513.47;;;4.22;100.00
79285;BME280;68734;50.452;11.636;2024-03-02T06:53:21;94510.28;;;4.25;100.00
79285;BME280;68734;50.452;11.636;2024-03-02T06:55:47;94505.03;;;4.30;100.00
79285;BME280;68734;50.452;11.636;2024-03-02T06:58:13;94517.41;;;4.36;100.00
79285;BME280;68734;50.452;11.636;2024-03-02T07:00:43;94513.75;;;4.42;100.00
79285;BME280;68734;50.452;11.636;2024-03-02T07:03:13;94518.09;;;4.48;100.00
79285;BME280;68734;50.452;11.636;2024-03-02T07:05:38;94519.22;;;4.52;100.00
79285;BME280;68734;50.452;11.636;2024-03-02T07:08:04;94519.31;;;4.57;100.00
79285;BME280;68734;50.452;11.636;2024-03-02T07:10:31;94520.97;;;4.64;100.00
79285;BME280;68734;50.452;11.636;2024-03-02T07:12:58;94518.34;;;4.69;100.00
79285;BME280;68734;50.452;11.636;2024-03-02T07:15:24;94515.44;;;4.70;100.00
79285;BME280;68734;50.452;11.636;2024-03-02T07:17:52;94520.91;;;4.80;100.00
79285;BME280;68734;50.452;11.636;2024-03-02T07:20:18;94519.41;;;4.90;99.61
79285;BME280;68734;50.452;11.636;2024-03-02T07:22:43;94526.22;;;4.97;99.07
79285;BME280;68734;50.452;11.636;2024-03-02T07:25:08;94530.56;;;5.04;98.47
79285;BME280;68734;50.452;11.636;2024-03-02T07:27:34;94532.28;;;5.15;98.69
79285;BME280;68734;50.452;11.636;2024-03-02T07:30:04;94528.84;;;5.19;97.90
79285;BME280;68734;50.452;11.636;2024-03-02T07:32:30;94530.31;;;5.32;97.28
79285;BME280;68734;50.452;11.636;2024-03-02T07:34:55;94537.97;;;5.46;96.58
79285;BME280;68734;50.452;11.636;2024-03-02T07:37:23;94534.81;;;5.54;96.51
79285;BME280;68734;50.452;11.636;2024-03-02T07:39:50;94532.78;;;5.66;96.35
79285;BME280;68734;50.452;11.636;2024-03-02T07:42:15;94540.88;;;5.71;95.14
79285;BME280;68734;50.452;11.636;2024-03-02T07:44:41;94539.34;;;5.80;95.37
79285;BME280;68734;50.452;11.636;2024-03-02T07:47:07;94547.34;;;5.75;94.12
79285;BME280;68734;50.452;11.636;2024-03-02T07:49:32;94549.50;;;6.06;93.72
79285;BME280;68734;50.452;11.636;2024-03-02T07:51:58;94544.25;;;6.69;91.69
79285;BME280;68734;50.452;11.636;2024-03-02T07:54:23;94546.69;;;7.38;86.85
79285;BME280;68734;50.452;11.636;2024-03-02T07:56:49;94543.00;;;8.01;84.09
79285;BME280;68734;50.452;11.636;2024-03-02T07:59:17;94546.53;;;8.12;82.06
79285;BME280;68734;50.452;11.636;2024-03-02T08:01:43;94551.06;;;7.70;83.56
79285;BME280;68734;50.452;11.636;2024-03-02T08:04:11;94548.84;;;7.36;84.25
79285;BME280;68734;50.452;11.636;2024-03-02T08:06:36;94546.28;;;6.94;86.51
79285;BME280;68734;50.452;11.636;2024-03-02T08:09:02;94555.03;;;6.74;87.56
79285;BME280;68734;50.452;11.636;2024-03-02T08:11:34;94552.75;;;6.55;87.28
79285;BME280;68734;50.452;11.636;2024-03-02T08:14:00;94555.53;;;6.66;87.98
79285;BME280;68734;50.452;11.636;2024-03-02T08:16:25;94558.16;;;6.61;87.54
79285;BME280;68734;50.452;11.636;2024-03-02T08:18:51;94564.06;;;6.57;88.29
79285;BME280;68734;50.452;11.636;2024-03-02T08:21:17;94564.63;;;6.65;88.28
79285;BME280;68734;50.452;11.636;2024-03-02T08:23:43;94553.41;;;6.73;88.89
79285;BME280;68734;50.452;11.636;2024-03-02T08:26:09;94546.44;;;6.77;88.77
79285;BME280;68734;50.452;11.636;2024-03-02T08:28:35;94550.25;;;6.86;87.86
79285;BME280;68734;50.452;11.636;2024-03-02T08:31:03;94555.63;;;6.91;86.44
79285;BME280;68734;50.452;11.636;2024-03-02T08:33:28;94562.72;;;7.08;87.27
79285;BME280;68734;50.452;11.636;2024-03-02T08:35:54;94555.22;;;7.15;86.45
79285;BME280;68734;50.452;11.636;2024-03-02T08:38:22;94556.06;;;7.26;85.86
79285;BME280;68734;50.452;11.636;2024-03-02T08:40:47;94550.44;;;7.32;85.59
79285;BME280;68734;50.452;11.636;2024-03-02T08:43:13;94553.13;;;7.37;85.89
79285;BME280;68734;50.452;11.636;2024-03-02T08:45:39;94553.16;;;7.43;85.16
79285;BME280;68734;50.452;11.636;2024-03-02T08:48:07;94545.09;;;7.43;84.06
79285;BME280;68734;50.452;11.636;2024-03-02T08:50:34;94558.81;;;7.46;84.74
79285;BME280;68734;50.452;11.636;2024-03-02T08:53:05;94560.69;;;7.46;84.06
79285;BME280;68734;50.452;11.636;2024-03-02T08:55:37;94552.09;;;7.59;84.58
79285;BME280;68734;50.452;11.636;2024-03-02T08:58:02;94562.88;;;7.74;84.24
79285;BME280;68734;50.452;11.636;2024-03-02T09:00:28;94560.47;;;7.78;84.09
79285;BME280;68734;50.452;11.636;2024-03-02T09:02:54;94555.34;;;7.82;84.51
79285;BME280;68734;50.452;11.636;2024-03-02T09:05:19;94565.56;;;7.74;83.45
79285;BME280;68734;50.452;11.636;2024-03-02T09:07:47;94565.56;;;7.79;82.91
79285;BME280;68734;50.452;11.636;2024-03-02T09:10:15;94567.75;;;7.93;82.59
79285;BME280;68734;50.452;11.636;2024-03-02T09:12:41;94568.81;;;8.07;82.45
79285;BME280;68734;50.452;11.636;2024-03-02T09:15:07;94571.53;;;8.02;80.54
79285;BME280;68734;50.452;11.636;2024-03-02T09:17:35;94566.94;;;8.03;81.68
79285;BME280;68734;50.452;11.636;2024-03-02T09:20:00;94567.22;;;8.01;81.73
79285;BME280;68734;50.452;11.636;2024-03-02T09:22:26;94572.84;;;7.89;81.74
79285;BME280;68734;50.452;11.636;2024-03-02T09:24:53;94568.53;;;7.83;82.74
79285;BME280;68734;50.452;11.636;2024-03-02T09:27:21;94570.41;;;7.77;82.89
79285;BME280;68734;50.452;11.636;2024-03-02T09:29:47;94577.94;;;7.75;81.23
79285;BME280;68734;50.452;11.636;2024-03-02T09:32:15;94580.09;;;7.78;82.87
79285;BME280;68734;50.452;11.636;2024-03-02T09:34:41;94581.72;;;7.85;81.93
79285;BME280;68734;50.452;11.636;2024-03-02T09:37:09;94573.13;;;7.83;81.70
79285;BME280;68734;50.452;11.636;2024-03-02T09:39:34;94587.66;;;7.92;81.31
79285;BME280;68734;50.452;11.636;2024-03-02T09:42:00;94588.19;;;8.04;80.76
79285;BME280;68734;50.452;11.636;2024-03-02T09:44:26;94594.13;;;8.06;80.32
79285;BME280;68734;50.452;11.636;2024-03-02T09:46:52;94590.91;;;8.14;79.36
79285;BME280;68734;50.452;11.636;2024-03-02T09:49:17;94592.78;;;8.29;80.12
79285;BME280;68734;50.452;11.636;2024-03-02T09:51:47;94599.00;;;8.50;79.22
79285;BME280;68734;50.452;11.636;2024-03-02T09:54:15;94591.44;;;8.47;78.56
79285;BME280;68734;50.452;11.636;2024-03-02T09:56:41;94600.59;;;8.56;78.48
79285;BME280;68734;50.452;11.636;2024-03-02T09:59:06;94596.81;;;8.63;79.20
79285;BME280;68734;50.452;11.636;2024-03-02T10:01:32;94590.09;;;8.55;77.80
79285;BME280;68734;50.452;11.636;2024-03-02T10:04:03;94586.63;;;8.54;78.25
79285;BME280;68734;50.452;11.636;2024-03-02T10:06:35;94591.44;;;8.63;77.72
79285;BME280;68734;50.452;11.636;2024-03-02T10:09:00;94587.16;;;8.41;76.82
79285;BME280;68734;50.452;11.636;2024-03-02T10:11:29;94598.44;;;8.38;76.47
79285;BME280;68734;50.452;11.636;2024-03-02T10:14:13;94593.06;;;8.48;77.21
79285;BME280;68734;50.452;11.636;2024-03-02T10:16:40;94580.16;;;8.45;76.70
79285;BME280;68734;50.452;11.636;2024-03-02T10:21:41;94599.00;;;8.50;76.84
79285;BME280;68734;50.452;11.636;2024-03-02T10:24:07;94595.78;;;8.48;77.50
79285;BME280;68734;50.452;11.636;2024-03-02T10:26:33;94593.59;;;8.61;78.02
79285;BME280;68734;50.452;11.636;2024-03-02T10:28:58;94585.47;;;8.86;77.59
79285;BME280;68734;50.452;11.636;2024-03-02T10:31:25;94582.13;;;9.25;74.70
79285;BME280;68734;50.452;11.636;2024-03-02T10:33:54;94586.63;;;9.45;73.89
79285;BME280;68734;50.452;11.636;2024-03-02T10:36:20;94582.50;;;9.58;73.10
79285;BME280;68734;50.452;11.636;2024-03-02T10:38:46;94590.63;;;9.48;71.71
79285;BME280;68734;50.452;11.636;2024-03-02T10:41:17;94587.50;;;9.30;70.98
79285;BME280;68734;50.452;11.636;2024-03-02T10:43:43;94583.28;;;8.93;72.32
79285;BME280;68734;50.452;11.636;2024-03-02T10:46:10;94579.03;;;8.72;73.02
79285;BME280;68734;50.452;11.636;2024-03-02T10:48:39;94581.22;;;8.65;73.12
79285;BME280;68734;50.452;11.636;2024-03-02T10:51:06;94580.38;;;8.74;72.91
79285;BME280;68734;50.452;11.636;2024-03-02T10:53:32;94575.81;;;8.80;73.64
79285;BME280;68734;50.452;11.636;2024-03-02T10:55:58;94577.88;;;9.04;73.47
79285;BME280;68734;50.452;11.636;2024-03-02T10:58:34;94584.84;;;9.20;72.23
79285;BME280;68734;50.452;11.636;2024-03-02T11:01:04;94576.94;;;9.34;71.43
79285;BME280;68734;50.452;11.636;2024-03-02T11:03:36;94573.97;;;9.41;70.05
79285;BME280;68734;50.452;11.636;2024-03-02T11:06:06;94571.81;;;9.43;70.26
79285;BME280;68734;50.452;11.636;2024-03-02T11:08:33;94571.81;;;9.37;70.44
79285;BME280;68734;50.452;11.636;2024-03-02T11:11:15;94563.78;;;9.27;72.13
79285;BME280;68734;50.452;11.636;2024-03-02T11:13:49;94563.56;;;9.18;71.96
79285;BME280;68734;50.452;11.636;2024-03-02T11:16:35;94568.91;;;9.29;72.65
79285;BME280;68734;50.452;11.636;2024-03-02T11:19:21;94568.88;;;9.34;73.07
79285;BME280;68734;50.452;11.636;2024-03-02T11:21:47;94556.97;;;9.40;71.65
79285;BME280;68734;50.452;11.636;2024-03-02T11:26:52;94550.47;;;9.51;73.27
79285;BME280;68734;50.452;11.636;2024-03-02T11:32:06;94551.47;;;9.06;73.79
79285;BME280;68734;50.452;11.636;2024-03-02T11:34:41;94552.94;;;8.72;74.36
79285;BME280;68734;50.452;11.636;2024-03-02T11:37:10;94535.13;;;8.82;75.69
79285;BME280;68734;50.452;11.636;2024-03-02T11:39:38;94540.28;;;8.78;73.46
79285;BME280;68734;50.452;11.636;2024-03-02T11:42:06;94539.69;;;8.91;74.93
79285;BME280;68734;50.452;11.636;2024-03-02T11:44:35;94542.84;;;9.04;74.77
79285;BME280;68734;50.452;11.636;2024-03-02T11:47:02;94535.56;;;9.09;72.88
79285;BME280;68734;50.452;11.636;2024-03-02T11:49:44;94531.50;;;9.17;72.97
79285;BME280;68734;50.452;11.636;2024-03-02T11:52:14;94518.03;;;9.17;72.87
79285;BME280;68734;50.452;11.636;2024-03-02T11:54:44;94520.72;;;9.17;72.67
79285;BME280;68734;50.452;11.636;2024-03-02T11:57:18;94520.38;;;9.34;70.84
79285;BME280;68734;50.452;11.636;2024-03-02T11:59:50;94515.28;;;9.32;70.21
79285;BME280;68734;50.452;11.636;2024-03-02T12:02:17;94519.50;;;9.44;70.43
79285;BME280;68734;50.452;11.636;2024-03-02T12:04:44;94513.50;;;9.57;68.61
79285;BME280;68734;50.452;11.636;2024-03-02T12:07:10;94513.41;;;9.72;68.13
79285;BME280;68734;50.452;11.636;2024-03-02T12:09:36;94520.38;;;9.78;65.41
79285;BME280;68734;50.452;11.636;2024-03-02T12:12:09;94514.75;;;9.75;65.52
79285;BME280;68734;50.452;11.636;2024-03-02T12:14:52;94512.31;;;9.73;66.55
79285;BME280;68734;50.452;11.636;2024-03-02T12:17:21;94508.50;;;9.79;66.67
79285;BME280;68734;50.452;11.636;2024-03-02T12:19:46;94506.31;;;9.87;63.29
79285;BME280;68734;50.452;11.636;2024-03-02T12:22:14;94507.59;;;9.94;66.44
79285;BME280;68734;50.452;11.636;2024-03-02T12:24:43;94511.63;;;9.97;65.64
79285;BME280;68734;50.452;11.636;2024-03-02T12:27:11;94510.47;;;10.03;66.59
79285;BME280;68734;50.452;11.636;2024-03-02T12:29:37;94506.16;;;10.02;65.16
79285;BME280;68734;50.452;11.636;2024-03-02T12:32:03;94508.84;;;10.07;64.88
79285;BME280;68734;50.452;11.636;2024-03-02T12:34:30;94506.09;;;10.12;65.25
79285;BME280;68734;50.452;11.636;2024-03-02T12:36:56;94501.81;;;10.06;65.75
79285;BME280;68734;50.452;11.636;2024-03-02T12:39:24;94498.53;;;10.14;65.48
79285;BME280;68734;50.452;11.636;2024-03-02T12:41:52;94495.59;;;10.11;65.34
79285;BME280;68734;50.452;11.636;2024-03-02T12:44:21;94503.97;;;10.09;65.13
79285;BME280;68734;50.452;11.636;2024-03-02T12:46:47;94492.03;;;10.15;64.78
79285;BME280;68734;50.452;11.636;2024-03-02T12:49:14;94493.00;;;10.30;64.07
79285;BME280;68734;50.452;11.636;2024-03-02T12:51:41;94482.47;;;10.33;63.64
79285;BME280;68734;50.452;11.636;2024-03-02T12:54:08;94484.38;;;10.28;62.33
79285;BME280;68734;50.452;11.636;2024-03-02T12:56:35;94476.28;;;10.28;61.75
79285;BME280;68734;50.452;11.636;2024-03-02T12:59:01;94473.63;;;10.23;63.13
79285;BME280;68734;50.452;11.636;2024-03-02T13:01:29;94477.06;;;10.33;63.58
79285;BME280;68734;50.452;11.636;2024-03-02T13:03:58;94475.13;;;10.39;62.30